Meteo Giornale » Osservazioni meteo Brasile » Goiania Aeroporto
ore: 22:00 - Osservazioni Meteo Goiania Aeroporto
Lat. 16° 38' S Lon. 49° 13' W Alt. 747 metri s.l.m.
27 °C
Sereno
Temp. 24 Ore
22 °C
38 °C
Nord/NOvest
7.4 Km/h
Dew point 14 °C
Umidità 44 %
Visibilità 10 Km
Il sole sorge alle ore 06:23
Il sole tramonta alle ore 18:10
| Data e Ora | Cielo e Fenomeni | T °C | DP °C | Um. % | Pres. hPa | Vis. km | Vento km/h | |
|---|---|---|---|---|---|---|---|---|
| Oggi h: 22:00 | Sereno | 27 | 14 | 44 | 1015 | 10 | N/NO 7.4 | |
| Oggi h: 21:00 | Sereno | 29 | 14 | 39 | 1014 | 10 | NO 7.4 | |
| Oggi h: 20:00 | Sereno | 31 | 12 | 31 | 1013 | 10 | N 9.3 | |
| Oggi h: 19:00 | Sereno | 33 | 11 | 26 | 1013 | 10 | N/NO 9.3 | |
| Oggi h: 18:00 | Sereno | 35 | 12 | 24 | 1013 | 10 | N/NO 13 | |
| Oggi h: 17:00 | Sereno | 36 | 11 | 22 | 1012 | 10 | N 18.5 | |
| Oggi h: 16:00 | Sereno | 36 | 10 | 20 | 1012 | 10 | O/NO 16.7 | |
| Oggi h: 15:00 | Sereno | 38 | 11 | 19 | 1012 | 10 | NO 22.2 | |
| Oggi h: 14:00 | Sereno | 38 | 12 | 21 | 1013 | 10 | NO 16.7 | |
| Oggi h: 13:00 | Molto Nuvoloso | 37 | 11 | 20 | 1014 | 10 | N 16.7 | |
| Oggi h: 12:00 | Poco Nuvoloso | 36 | 12 | 23 | 1015 | 10 | N 22.2 | |
| Oggi h: 11:00 | Sereno | 36 | 11 | 22 | 1016 | 10 | N 22.2 | |
| Oggi h: 10:00 | Sereno | 34 | 12 | 26 | 1017 | 10 | N/NE 22.2 | |
| Oggi h: 09:00 | Sereno | 31 | 13 | 33 | 1017 | 10 | N/NO 11.1 | |
| Oggi h: 08:00 | Sereno | 26 | 16 | 54 | 1017 | 10 | N 5.5 | |
| Oggi h: 07:00 | Sereno | 23 | 17 | 68 | 1016 | 10 | NO 9.3 | |
| Oggi h: 06:00 | Sereno | 22 | 18 | 78 | 1015 | 10 | O/NO 7.4 | |
| Oggi h: 05:00 | Sereno | 23 | 17 | 68 | 1015 | 10 | N 0 | |
| Oggi h: 04:00 | Sereno | 24 | 17 | 64 | 1014 | 10 | NO 7.4 | |
| Oggi h: 03:00 | Sereno | 23 | 17 | 68 | 1014 | 10 | N 5.5 | |
| Oggi h: 02:00 | Molto Nuvoloso | 24 | 18 | 69 | 1015 | 10 | N 3.7 | |
| Oggi h: 01:00 | Molto Nuvoloso | 25 | 18 | 65 | 1015 | 10 | N 1.8 | |
| Oggi h: 00:00 | Sereno | 25 | 18 | 65 | 1015 | 10 | N 3.7 | |
| Ieri h: 23:00 | Sereno | 24 | 17 | 64 | 1015 | 10 | NO 7.4 | |



